createdAt,value
2018-02-23T00:01:16.364Z,10.38
2018-02-23T00:03:42.869Z,10.75
2018-02-23T00:06:09.340Z,9.80
2018-02-23T00:08:35.743Z,10.18
2018-02-23T00:11:02.249Z,11.20
2018-02-23T00:13:29.401Z,13.13
2018-02-23T00:15:56.601Z,13.98
2018-02-23T00:18:23.043Z,10.68
2018-02-23T00:20:49.478Z,15.18
2018-02-23T00:23:15.914Z,10.65
2018-02-23T00:25:42.359Z,10.80
2018-02-23T00:28:08.784Z,11.38
2018-02-23T00:30:35.241Z,11.43
2018-02-23T00:33:01.681Z,11.63
2018-02-23T00:35:28.132Z,12.05
2018-02-23T00:37:55.305Z,13.82
2018-02-23T00:40:21.773Z,11.07
2018-02-23T00:42:48.214Z,11.88
2018-02-23T00:45:14.640Z,13.88
2018-02-23T00:47:41.071Z,12.20
2018-02-23T00:50:08.305Z,9.25
2018-02-23T00:52:34.741Z,12.77
2018-02-23T00:55:01.142Z,14.15
2018-02-23T00:57:27.626Z,13.15
2018-02-23T00:59:54.067Z,10.63
2018-02-23T01:02:20.524Z,14.05
2018-02-23T01:04:46.969Z,11.82
2018-02-23T01:07:14.149Z,13.52
2018-02-23T01:09:40.577Z,16.08
2018-02-23T01:12:07.111Z,12.10
2018-02-23T01:14:33.776Z,9.18
2018-02-23T01:17:00.221Z,11.20
2018-02-23T01:19:26.647Z,10.38
2018-02-23T01:21:53.110Z,13.85
2018-02-23T01:24:19.626Z,14.57
2018-02-23T01:26:46.085Z,12.40
2018-02-23T01:29:13.277Z,12.10
2018-02-23T01:31:39.850Z,9.13
2018-02-23T01:34:06.354Z,11.05
2018-02-23T01:36:32.805Z,11.25
2018-02-23T01:38:59.348Z,9.10
2018-02-23T01:41:25.824Z,14.18
2018-02-23T01:43:56.438Z,11.35
2018-02-23T01:46:22.870Z,12.20
2018-02-23T01:48:49.309Z,11.60
2018-02-23T01:51:15.741Z,11.07
2018-02-23T01:53:42.168Z,11.38
2018-02-23T01:56:08.592Z,12.45
2018-02-23T01:58:35.027Z,10.85
2018-02-23T02:01:01.447Z,11.60
2018-02-23T02:03:27.944Z,12.35
2018-02-23T02:05:54.389Z,21.17
2018-02-23T02:08:21.565Z,15.98
2018-02-23T02:10:47.992Z,13.93
2018-02-23T02:13:18.303Z,16.42
2018-02-23T02:15:44.924Z,18.48
2018-02-23T02:18:12.078Z,16.42
2018-02-23T02:20:38.557Z,28.30
2018-02-23T02:23:04.981Z,23.05
2018-02-23T02:25:31.411Z,14.32
2018-02-23T02:27:57.985Z,20.42
2018-02-23T02:30:24.407Z,33.58
2018-02-23T02:32:50.879Z,14.15
2018-02-23T02:35:18.075Z,19.10
2018-02-23T02:37:44.500Z,17.62
2018-02-23T02:40:10.902Z,22.73
2018-02-23T02:42:38.074Z,19.30
2018-02-23T02:45:04.522Z,20.20
2018-02-23T02:47:30.936Z,22.75
2018-02-23T02:49:57.481Z,13.43
2018-02-23T02:52:23.922Z,14.55
2018-02-23T02:54:50.356Z,14.87
2018-02-23T02:57:16.761Z,11.23
2018-02-23T02:59:43.298Z,14.27
2018-02-23T03:02:10.442Z,15.05
2018-02-23T03:04:37.661Z,12.68
2018-02-23T03:07:04.109Z,11.88
2018-02-23T03:09:30.570Z,9.23
2018-02-23T03:11:57.021Z,12.05
2018-02-23T03:14:23.482Z,14.85
2018-02-23T03:16:49.959Z,12.98
2018-02-23T03:19:17.159Z,12.35
2018-02-23T03:21:43.594Z,10.27
2018-02-23T03:24:10.039Z,11.32
2018-02-23T03:26:36.469Z,12.77
2018-02-23T03:29:02.915Z,13.93
2018-02-23T03:31:30.067Z,9.40
2018-02-23T03:33:56.489Z,13.62
2018-02-23T03:36:22.941Z,14.27
2018-02-23T03:38:49.348Z,14.38
2018-02-23T03:41:15.780Z,10.85
2018-02-23T03:43:42.208Z,14.45
2018-02-23T03:46:08.673Z,12.80
2018-02-23T03:48:35.872Z,11.82
2018-02-23T03:51:02.330Z,11.52
2018-02-23T03:53:28.774Z,9.90
2018-02-23T03:55:55.230Z,13.62
2018-02-23T03:58:21.688Z,11.23
2018-02-23T04:00:48.089Z,15.07
2018-02-23T04:03:14.590Z,11.18
2018-02-23T04:05:41.007Z,15.30
2018-02-23T04:08:08.163Z,14.87
2018-02-23T04:10:38.469Z,12.50
2018-02-23T04:13:05.666Z,16.02
2018-02-23T04:15:32.134Z,9.55
2018-02-23T04:17:58.544Z,12.98
2018-02-23T04:20:25.061Z,11.70
2018-02-23T04:22:52.382Z,13.43
2018-02-23T04:25:18.885Z,18.20
2018-02-23T04:27:45.320Z,17.52
2018-02-23T04:30:11.726Z,14.13
2018-02-23T04:32:38.164Z,15.02
2018-02-23T04:35:04.576Z,11.18
2018-02-23T04:37:31.062Z,15.77
2018-02-23T04:40:01.367Z,15.40
2018-02-23T04:42:27.793Z,15.80
2018-02-23T04:44:54.202Z,12.68
2018-02-23T04:47:21.374Z,16.25
2018-02-23T04:49:47.804Z,18.87
2018-02-23T04:52:14.266Z,15.40
2018-02-23T04:54:40.728Z,13.70
2018-02-23T04:57:07.128Z,17.23
2018-02-23T04:59:33.580Z,22.90
2018-02-23T05:02:00.006Z,18.23
2018-02-23T05:04:26.509Z,20.75
2018-02-23T05:06:52.953Z,24.10
2018-02-23T05:09:19.390Z,13.70
2018-02-23T05:11:45.841Z,19.98
2018-02-23T05:14:12.261Z,20.02
2018-02-23T05:16:38.707Z,21.20
2018-02-23T05:19:05.161Z,14.65
2018-02-23T05:21:31.606Z,28.50
2018-02-23T05:23:58.942Z,25.62
2018-02-23T05:26:25.407Z,22.40
2018-02-23T05:28:52.005Z,22.17
2018-02-23T05:31:18.490Z,19.10
2018-02-23T05:33:45.681Z,20.17
2018-02-23T05:36:12.135Z,16.27
2018-02-23T05:38:38.639Z,19.75
2018-02-23T05:41:05.073Z,21.48
2018-02-23T05:43:31.508Z,17.70
2018-02-23T05:45:57.987Z,24.83
2018-02-23T05:48:24.383Z,20.80
2018-02-23T05:50:50.862Z,20.85
2018-02-23T05:53:17.373Z,18.08
2018-02-23T05:55:44.067Z,21.33
2018-02-23T05:58:11.320Z,22.15
2018-02-23T06:00:38.474Z,17.02
2018-02-23T06:03:04.931Z,19.50
2018-02-23T06:05:31.360Z,20.48
2018-02-23T06:07:57.804Z,16.25
2018-02-23T06:10:30.201Z,12.13
2018-02-23T06:12:57.414Z,19.05
2018-02-23T06:15:24.673Z,14.43
2018-02-23T06:17:57.313Z,20.62
2018-02-23T06:20:28.492Z,18.08
2018-02-23T06:22:54.927Z,16.90
2018-02-23T06:25:21.350Z,14.45
2018-02-23T06:27:47.789Z,18.45
2018-02-23T06:30:14.199Z,12.27
2018-02-23T06:32:41.712Z,18.00
2018-02-23T06:35:08.252Z,16.10
2018-02-23T06:37:34.689Z,15.98
2018-02-23T06:40:01.373Z,16.85
2018-02-23T06:42:27.823Z,14.38
2018-02-23T06:44:54.307Z,18.80
2018-02-23T06:47:20.736Z,11.55
2018-02-23T06:49:47.946Z,14.38
2018-02-23T06:52:14.381Z,19.37
2018-02-23T06:54:40.853Z,21.75
2018-02-23T06:57:07.267Z,15.13
2018-02-23T06:59:33.669Z,11.10
2018-02-23T07:02:00.097Z,15.18
2018-02-23T07:04:27.262Z,19.48
2018-02-23T07:06:53.741Z,12.32
2018-02-23T07:09:20.189Z,15.40
2018-02-23T07:11:46.714Z,18.45
2018-02-23T07:14:13.172Z,16.92
2018-02-23T07:16:40.357Z,18.17
2018-02-23T07:19:06.809Z,20.05
2018-02-23T07:21:33.222Z,24.40
2018-02-23T07:23:59.711Z,22.13
2018-02-23T07:26:26.161Z,17.23
2018-02-23T07:28:52.594Z,30.60
2018-02-23T07:31:19.798Z,19.90
2018-02-23T07:33:46.246Z,23.35
2018-02-23T07:36:12.710Z,18.35
2018-02-23T07:38:39.956Z,21.33
2018-02-23T07:41:07.129Z,21.12
2018-02-23T07:43:34.325Z,24.17
2018-02-23T07:46:00.753Z,17.12
2018-02-23T07:48:27.196Z,21.30
2018-02-23T07:50:53.685Z,24.52
2018-02-23T07:53:20.147Z,19.37
2018-02-23T07:55:46.653Z,21.80
2018-02-23T07:58:13.889Z,23.77
2018-02-23T08:00:42.265Z,19.00
2018-02-23T08:03:09.425Z,20.98
2018-02-23T08:05:35.892Z,21.10
2018-02-23T08:08:02.365Z,18.08
2018-02-23T08:10:28.813Z,29.42
2018-02-23T08:12:56.100Z,30.50
2018-02-23T08:15:22.541Z,25.83
2018-02-23T08:17:49.012Z,23.83
2018-02-23T08:20:15.435Z,30.08
2018-02-23T08:22:41.876Z,27.25
2018-02-23T08:25:08.325Z,27.20
2018-02-23T08:27:34.765Z,27.27
2018-02-23T08:30:01.185Z,26.10
2018-02-23T08:32:27.632Z,24.67
2018-02-23T08:34:54.044Z,18.58
2018-02-23T08:37:20.453Z,20.88
2018-02-23T08:39:46.961Z,26.58
2018-02-23T08:42:14.145Z,26.15
2018-02-23T08:44:40.579Z,27.30
2018-02-23T08:47:06.990Z,29.00
2018-02-23T08:49:34.221Z,28.10
2018-02-23T08:52:00.650Z,25.48
2018-02-23T08:54:27.146Z,26.42
2018-02-23T08:56:53.577Z,17.35
2018-02-23T08:59:20.009Z,20.08
2018-02-23T09:01:46.470Z,27.13
2018-02-23T09:04:12.931Z,22.52
2018-02-23T09:06:40.818Z,22.10
2018-02-23T09:09:07.987Z,29.25
2018-02-23T09:11:34.424Z,26.60
2018-02-23T09:14:00.953Z,24.75
2018-02-23T09:16:27.404Z,24.52
2018-02-23T09:18:53.910Z,20.50
2018-02-23T09:21:21.054Z,21.48
2018-02-23T09:23:47.496Z,21.17
2018-02-23T09:26:14.656Z,26.02
2018-02-23T09:28:41.114Z,25.37
2018-02-23T09:31:07.526Z,26.70
2018-02-23T09:33:46.212Z,24.48
2018-02-23T09:36:12.686Z,22.00
2018-02-23T09:38:39.133Z,23.25
2018-02-23T09:41:05.572Z,22.87
2018-02-23T09:43:32.040Z,22.37
2018-02-23T09:45:58.458Z,24.77
2018-02-23T09:48:24.929Z,24.52
2018-02-23T09:50:52.145Z,24.02
2018-02-23T09:53:18.541Z,20.52
2018-02-23T09:55:45.005Z,21.70
2018-02-23T09:58:11.444Z,23.50
2018-02-23T10:00:37.866Z,25.10
2018-02-23T10:03:04.340Z,24.65
2018-02-23T10:05:31.599Z,21.45
2018-02-23T10:07:58.033Z,26.87
2018-02-23T10:10:24.440Z,21.95
2018-02-23T10:12:50.922Z,23.55
2018-02-23T10:15:18.126Z,26.83
2018-02-23T10:17:44.593Z,24.52
2018-02-23T10:20:11.747Z,23.02
2018-02-23T10:22:38.924Z,35.03
2018-02-23T10:25:06.066Z,25.67
2018-02-23T10:27:32.504Z,24.83
2018-02-23T10:29:59.672Z,23.73
2018-02-23T10:32:26.245Z,30.75
2018-02-23T10:34:52.719Z,27.65
2018-02-23T10:37:19.941Z,24.65
2018-02-23T10:39:46.412Z,23.87
2018-02-23T10:42:12.857Z,24.55
2018-02-23T10:44:39.330Z,22.60
2018-02-23T10:47:05.778Z,25.52
2018-02-23T10:49:32.244Z,20.62
2018-02-23T10:51:59.449Z,23.85
2018-02-23T10:54:25.879Z,22.23
2018-02-23T10:56:52.368Z,30.60
2018-02-23T10:59:18.845Z,22.95
2018-02-23T11:01:45.337Z,27.73
2018-02-23T11:04:12.649Z,31.42
2018-02-23T11:06:39.105Z,24.95
2018-02-23T11:09:05.609Z,25.10
2018-02-23T11:11:32.080Z,24.30
2018-02-23T11:13:59.323Z,24.50
2018-02-23T11:16:25.815Z,24.70
2018-02-23T11:18:52.259Z,22.90
2018-02-23T11:21:18.666Z,19.27
2018-02-23T11:23:45.134Z,20.23
2018-02-23T11:26:15.395Z,21.50
2018-02-23T11:28:41.816Z,27.37
2018-02-23T11:31:08.317Z,23.70
2018-02-23T11:33:34.736Z,19.80
2018-02-23T11:36:01.190Z,21.37
2018-02-23T11:38:27.606Z,25.10
2018-02-23T11:40:54.037Z,23.13
2018-02-23T11:43:20.513Z,25.80
2018-02-23T11:45:46.959Z,20.43
2018-02-23T11:48:13.403Z,23.73
2018-02-23T11:50:39.809Z,26.13
2018-02-23T11:53:06.274Z,27.33
2018-02-23T11:55:33.470Z,24.07
2018-02-23T11:58:06.717Z,26.37
2018-02-23T12:00:33.919Z,25.70
2018-02-23T12:03:00.409Z,23.67
2018-02-23T12:05:26.924Z,26.40
2018-02-23T12:07:53.351Z,26.33
2018-02-23T12:10:19.842Z,21.80
2018-02-23T12:12:46.313Z,23.27
2018-02-23T12:15:12.741Z,19.57
2018-02-23T12:17:39.207Z,25.53
2018-02-23T12:20:05.681Z,23.93
2018-02-23T12:22:32.152Z,26.73
2018-02-23T12:24:58.610Z,28.13
2018-02-23T12:27:25.081Z,25.00
2018-02-23T12:29:51.526Z,20.53
2018-02-23T12:32:17.983Z,23.13
2018-02-23T12:34:44.449Z,26.03
2018-02-23T12:37:10.872Z,26.93
2018-02-23T12:39:37.358Z,23.73
2018-02-23T12:42:03.847Z,25.93
2018-02-23T12:44:30.294Z,22.77
2018-02-23T12:46:56.755Z,24.43
2018-02-23T12:49:23.959Z,26.20
2018-02-23T12:51:50.391Z,22.97
2018-02-23T12:54:16.817Z,23.37
2018-02-23T12:56:43.262Z,22.37
2018-02-23T12:59:09.747Z,24.87
2018-02-23T13:01:36.204Z,25.23
2018-02-23T13:04:02.729Z,22.63
2018-02-23T13:06:29.229Z,24.37
2018-02-23T13:08:56.432Z,23.33
2018-02-23T13:11:22.881Z,23.90
2018-02-23T13:13:55.366Z,26.43
2018-02-23T13:16:21.805Z,24.10
2018-02-23T13:18:48.278Z,24.03
2018-02-23T13:21:14.975Z,26.33
2018-02-23T13:23:43.178Z,19.83
2018-02-23T13:26:09.714Z,21.83
2018-02-23T13:28:42.886Z,24.10
2018-02-23T13:31:09.356Z,21.60
2018-02-23T13:33:35.865Z,22.60
2018-02-23T13:36:02.312Z,22.47
2018-02-23T13:38:28.764Z,23.33
2018-02-23T13:41:02.056Z,25.10
2018-02-23T13:43:29.207Z,22.47
2018-02-23T13:45:56.411Z,26.90
2018-02-23T13:48:22.905Z,23.03
2018-02-23T13:50:49.485Z,20.80
2018-02-23T13:53:15.904Z,21.97
2018-02-23T13:55:42.463Z,21.73
2018-02-23T13:58:08.897Z,30.57
2018-02-23T14:00:36.281Z,27.47
2018-02-23T14:03:02.729Z,23.13
2018-02-23T14:05:29.995Z,27.00
2018-02-23T14:07:56.466Z,24.33
2018-02-23T14:10:22.938Z,22.13
2018-02-23T14:12:50.164Z,21.93
2018-02-23T14:15:16.617Z,29.25
2018-02-23T14:17:43.109Z,22.37
2018-02-23T14:20:13.390Z,25.90
2018-02-23T14:22:40.548Z,24.03
2018-02-23T14:25:06.988Z,21.37
2018-02-23T14:27:34.151Z,20.62
2018-02-23T14:30:00.616Z,23.10
2018-02-23T14:32:27.074Z,22.65
2018-02-23T14:34:53.511Z,22.48
2018-02-23T14:37:20.136Z,21.33
2018-02-23T14:39:46.561Z,19.80
2018-02-23T14:42:13.023Z,25.17
2018-02-23T14:44:40.442Z,22.35
2018-02-23T14:47:06.901Z,23.67
2018-02-23T14:49:33.337Z,23.17
2018-02-23T14:51:59.767Z,26.37
2018-02-23T14:54:26.394Z,26.45
2018-02-23T14:56:52.845Z,22.40
2018-02-23T14:59:19.341Z,17.83
2018-02-23T15:01:45.795Z,23.08
2018-02-23T15:04:12.249Z,28.70
2018-02-23T15:06:38.736Z,24.50
2018-02-23T15:09:05.181Z,26.75
2018-02-23T15:11:31.616Z,23.67
2018-02-23T15:13:58.069Z,30.17
2018-02-23T15:16:24.500Z,27.37
2018-02-23T15:18:50.981Z,25.17
2018-02-23T15:21:18.308Z,25.62
2018-02-23T15:23:59.090Z,25.73
2018-02-23T15:26:25.525Z,21.27
2018-02-23T15:28:52.049Z,29.12
2018-02-23T15:31:30.825Z,22.25
2018-02-23T15:33:57.296Z,22.20
2018-02-23T15:36:27.747Z,23.87
2018-02-23T15:38:54.181Z,27.13
2018-02-23T15:41:24.573Z,21.48
2018-02-23T15:43:51.032Z,25.50
2018-02-23T15:46:17.427Z,26.02
2018-02-23T15:48:48.732Z,24.17
2018-02-23T15:51:19.122Z,24.50
2018-02-23T15:53:45.649Z,26.67
2018-02-23T15:56:12.079Z,27.58
2018-02-23T15:58:44.616Z,28.65
2018-02-23T16:01:11.059Z,25.12
2018-02-23T16:03:38.276Z,26.40
2018-02-23T16:06:04.803Z,25.60
2018-02-23T16:08:31.305Z,22.83
2018-02-23T16:10:57.763Z,24.85
2018-02-23T16:13:24.216Z,26.80
2018-02-23T16:15:50.635Z,26.17
2018-02-23T16:18:17.130Z,27.52
2018-02-23T16:20:44.281Z,20.70
2018-02-23T16:23:11.450Z,23.58
2018-02-23T16:25:38.025Z,27.30
2018-02-23T16:28:04.470Z,26.42
2018-02-23T16:30:30.904Z,20.02
2018-02-23T16:32:57.387Z,25.50
2018-02-23T16:35:23.793Z,29.60
2018-02-23T16:37:50.992Z,57.15
2018-02-23T16:40:17.435Z,80.10
2018-02-23T16:42:47.729Z,29.65
2018-02-23T16:45:14.247Z,28.50
2018-02-23T16:47:40.764Z,28.48
2018-02-23T16:50:07.208Z,22.13
2018-02-23T16:52:34.373Z,27.10
2018-02-23T16:55:00.882Z,24.45
2018-02-23T16:57:27.294Z,25.08
2018-02-23T16:59:53.712Z,24.25
2018-02-23T17:02:20.208Z,27.37
2018-02-23T17:04:47.362Z,23.23
2018-02-23T17:07:14.534Z,28.05
2018-02-23T17:09:41.013Z,31.70
2018-02-23T17:12:07.457Z,30.05
2018-02-23T17:14:34.762Z,31.02
2018-02-23T17:17:01.257Z,29.12
2018-02-23T17:19:34.366Z,32.50
2018-02-23T17:22:01.580Z,38.65
2018-02-23T17:24:28.067Z,29.37
2018-02-23T17:26:54.610Z,25.85
2018-02-23T17:29:21.065Z,29.50
2018-02-23T17:31:47.737Z,28.95
2018-02-23T17:34:16.275Z,27.65
2018-02-23T17:36:43.015Z,24.02
2018-02-23T17:39:09.595Z,24.65
2018-02-23T17:41:36.174Z,24.12
2018-02-23T17:44:10.995Z,28.83
2018-02-23T17:46:37.451Z,28.60
2018-02-23T17:49:03.953Z,23.98
2018-02-23T17:51:31.313Z,26.87
2018-02-23T17:53:57.916Z,26.87
2018-02-23T17:56:24.619Z,26.12
2018-02-23T17:58:51.449Z,24.60
2018-02-23T18:01:17.892Z,22.67
2018-02-23T18:03:44.314Z,26.35
2018-02-23T18:06:10.802Z,33.53
2018-02-23T18:08:37.240Z,29.00
2018-02-23T18:11:04.574Z,26.20
2018-02-23T18:13:30.989Z,26.00
2018-02-23T18:15:57.505Z,27.45
2018-02-23T18:18:23.965Z,25.37
2018-02-23T18:20:50.444Z,31.10
2018-02-23T18:23:16.876Z,25.80
2018-02-23T18:25:45.058Z,27.37
2018-02-23T18:28:13.006Z,23.38
2018-02-23T18:30:39.446Z,28.10
2018-02-23T18:33:05.917Z,26.62
2018-02-23T18:35:33.092Z,29.30
2018-02-23T18:37:59.598Z,36.38
2018-02-23T18:40:27.796Z,31.92
2018-02-23T18:42:54.947Z,31.67
2018-02-23T18:45:21.639Z,32.78
2018-02-23T18:47:48.846Z,35.72
2018-02-23T18:50:15.287Z,34.88
2018-02-23T18:52:41.711Z,31.15
2018-02-23T18:55:08.289Z,33.60
2018-02-23T18:57:36.256Z,34.55
2018-02-23T19:00:03.002Z,31.35
2018-02-23T19:02:29.484Z,28.33
2018-02-23T19:04:55.999Z,33.30
2018-02-23T19:07:23.361Z,33.28
2018-02-23T19:09:49.857Z,32.55
2018-02-23T19:12:16.353Z,31.60
2018-02-23T19:14:42.819Z,30.20
2018-02-23T19:17:09.336Z,29.60
2018-02-23T19:19:35.785Z,29.48
2018-02-23T19:22:02.261Z,34.22
2018-02-23T19:24:29.444Z,31.92
2018-02-23T19:26:57.461Z,32.72
2018-02-23T19:29:23.900Z,33.70
2018-02-23T19:31:50.346Z,29.17
2018-02-23T19:34:18.252Z,24.52
2018-02-23T19:36:44.681Z,31.60
2018-02-23T19:39:11.980Z,32.50
2018-02-23T19:41:38.397Z,33.33
2018-02-23T19:44:04.829Z,32.50
2018-02-23T19:46:31.281Z,32.55
2018-02-23T19:48:57.723Z,33.58
2018-02-23T19:51:24.158Z,33.50
2018-02-23T19:53:50.613Z,27.75
2018-02-23T19:56:17.823Z,36.72
2018-02-23T19:58:44.221Z,33.92
2018-02-23T20:01:11.395Z,29.60
2018-02-23T20:03:37.823Z,33.65
2018-02-23T20:06:04.294Z,34.47
2018-02-23T20:08:30.734Z,29.25
2018-02-23T20:10:57.168Z,29.33
2018-02-23T20:13:23.608Z,32.40
2018-02-23T20:15:50.061Z,31.12
2018-02-23T20:18:17.273Z,33.28
2018-02-23T20:20:43.724Z,36.13
2018-02-23T20:23:10.213Z,29.92
2018-02-23T20:25:37.393Z,29.30
2018-02-23T20:28:03.842Z,30.15
2018-02-23T20:30:30.314Z,31.80
2018-02-23T20:32:57.496Z,33.63
2018-02-23T20:35:23.930Z,35.42
2018-02-23T20:37:50.378Z,33.20
2018-02-23T20:40:16.824Z,32.83
2018-02-23T20:42:43.272Z,35.53
2018-02-23T20:45:09.721Z,33.72
2018-02-23T20:47:36.138Z,35.47
2018-02-23T20:50:02.649Z,34.70
2018-02-23T20:52:29.045Z,30.42
2018-02-23T20:54:56.200Z,31.20
2018-02-23T20:57:23.413Z,32.65
2018-02-23T20:59:49.797Z,37.85
2018-02-23T21:02:16.238Z,34.30
2018-02-23T21:04:42.687Z,34.92
2018-02-23T21:07:09.253Z,36.78
2018-02-23T21:09:36.450Z,36.00
2018-02-23T21:12:02.897Z,33.47
2018-02-23T21:14:30.038Z,37.15
2018-02-23T21:16:56.723Z,31.75
2018-02-23T21:19:23.208Z,31.08
2018-02-23T21:21:49.653Z,35.28
2018-02-23T21:24:16.122Z,30.85
2018-02-23T21:26:42.562Z,36.45
2018-02-23T21:29:09.000Z,31.83
2018-02-23T21:31:35.448Z,33.25
2018-02-23T21:34:01.902Z,30.80
2018-02-23T21:36:29.284Z,30.42
2018-02-23T21:38:55.744Z,33.58
2018-02-23T21:41:22.591Z,31.80
2018-02-23T21:43:49.004Z,36.13
2018-02-23T21:46:15.420Z,30.02
2018-02-23T21:48:42.568Z,33.38
2018-02-23T21:51:09.738Z,36.20
2018-02-23T21:53:36.185Z,32.97
2018-02-23T21:56:02.702Z,31.02
2018-02-23T21:58:29.148Z,37.00
2018-02-23T22:00:55.584Z,35.05
2018-02-23T22:03:22.034Z,26.60
2018-02-23T22:05:48.468Z,34.72
2018-02-23T22:08:14.928Z,26.90
2018-02-23T22:10:42.139Z,33.83
2018-02-23T22:13:08.568Z,31.20
2018-02-23T22:15:35.041Z,31.75
2018-02-23T22:18:01.521Z,29.23
2018-02-23T22:20:28.031Z,27.90
2018-02-23T22:22:55.222Z,25.77
2018-02-23T22:25:21.707Z,28.65
2018-02-23T22:27:48.290Z,29.35
2018-02-23T22:30:15.551Z,32.92
2018-02-23T22:32:42.000Z,35.17
2018-02-23T22:35:08.471Z,40.92
2018-02-23T22:37:34.884Z,51.45
2018-02-23T22:40:01.658Z,54.70
2018-02-23T22:42:28.210Z,31.33
2018-02-23T22:44:55.409Z,36.03
2018-02-23T22:47:22.589Z,36.38
2018-02-23T22:49:49.805Z,34.22
2018-02-23T22:52:16.245Z,33.50
2018-02-23T22:54:42.677Z,36.38
2018-02-23T22:57:09.105Z,37.03
2018-02-23T22:59:35.509Z,31.67
2018-02-23T23:02:01.969Z,35.33
2018-02-23T23:04:28.408Z,29.23
2018-02-23T23:06:54.869Z,32.40
2018-02-23T23:09:21.305Z,31.33
2018-02-23T23:11:47.751Z,33.75
2018-02-23T23:14:14.929Z,29.70
2018-02-23T23:16:45.281Z,27.30
2018-02-23T23:19:11.841Z,35.95
2018-02-23T23:21:38.325Z,27.40
2018-02-23T23:24:04.864Z,33.90
2018-02-23T23:26:31.293Z,32.10
2018-02-23T23:28:58.478Z,33.83
2018-02-23T23:31:24.903Z,25.40
2018-02-23T23:33:51.344Z,26.80
2018-02-23T23:36:17.758Z,31.25
2018-02-23T23:38:44.156Z,35.08
2018-02-23T23:41:10.637Z,31.62
2018-02-23T23:43:37.077Z,29.42
2018-02-23T23:46:03.524Z,33.88
2018-02-23T23:48:29.920Z,30.77
2018-02-23T23:50:56.384Z,32.40
2018-02-23T23:53:22.784Z,30.33
2018-02-23T23:55:49.952Z,27.90
2018-02-23T23:58:16.396Z,28.12
